sensor_id;sensor_type;location;lat;lon;timestamp;pressure;altitude;pressure_sealevel;temperature;humidity
52927;BME280;40783;49.710;8.842;2023-04-30T00:01:01;99479.22;;;10.76;100.00
52927;BME280;40783;49.710;8.842;2023-04-30T00:03:29;99478.44;;;10.66;100.00
52927;BME280;40783;49.710;8.842;2023-04-30T00:05:56;99479.84;;;10.70;100.00
52927;BME280;40783;49.710;8.842;2023-04-30T00:08:21;99474.75;;;10.77;100.00
52927;BME280;40783;49.710;8.842;2023-04-30T00:10:47;99483.19;;;10.72;100.00
52927;BME280;40783;49.710;8.842;2023-04-30T00:13:12;99482.91;;;10.75;100.00
52927;BME280;40783;49.710;8.842;2023-04-30T00:15:40;99474.47;;;10.70;100.00
52927;BME280;40783;49.710;8.842;2023-04-30T00:18:05;99486.56;;;10.74;100.00
52927;BME280;40783;49.710;8.842;2023-04-30T00:20:31;99481.50;;;10.71;100.00
52927;BME280;40783;49.710;8.842;2023-04-30T00:22:58;99484.44;;;10.60;100.00
52927;BME280;40783;49.710;8.842;2023-04-30T00:25:24;99482.88;;;10.57;100.00
52927;BME280;40783;49.710;8.842;2023-04-30T00:27:51;99494.78;;;10.63;100.00
52927;BME280;40783;49.710;8.842;2023-04-30T00:30:17;99490.81;;;10.67;100.00
52927;BME280;40783;49.710;8.842;2023-04-30T00:32:44;99491.13;;;10.64;100.00
52927;BME280;40783;49.710;8.842;2023-04-30T00:35:10;99496.03;;;10.68;100.00
52927;BME280;40783;49.710;8.842;2023-04-30T00:37:35;99491.13;;;10.64;100.00
52927;BME280;40783;49.710;8.842;2023-04-30T00:40:01;99494.78;;;10.63;100.00
52927;BME280;40783;49.710;8.842;2023-04-30T00:42:26;99496.78;;;10.61;100.00
52927;BME280;40783;49.710;8.842;2023-04-30T00:44:53;99497.09;;;10.58;100.00
52927;BME280;40783;49.710;8.842;2023-04-30T00:47:19;99507.47;;;10.61;100.00
52927;BME280;40783;49.710;8.842;2023-04-30T00:49:44;99499.69;;;10.49;100.00
52927;BME280;40783;49.710;8.842;2023-04-30T00:52:10;99497.00;;;10.49;100.00
52927;BME280;40783;49.710;8.842;2023-04-30T00:54:40;99505.44;;;10.54;100.00
52927;BME280;40783;49.710;8.842;2023-04-30T00:57:11;99504.72;;;10.52;100.00
52927;BME280;40783;49.710;8.842;2023-04-30T00:59:40;99500.28;;;10.43;100.00
52927;BME280;40783;49.710;8.842;2023-04-30T01:02:08;99499.13;;;10.46;100.00
52927;BME280;40783;49.710;8.842;2023-04-30T01:04:34;99507.59;;;10.41;100.00
52927;BME280;40783;49.710;8.842;2023-04-30T01:07:02;99510.41;;;10.39;100.00
52927;BME280;40783;49.710;8.842;2023-04-30T01:09:28;99514.63;;;10.42;100.00
52927;BME280;40783;49.710;8.842;2023-04-30T01:12:07;99507.31;;;10.44;100.00
52927;BME280;40783;49.710;8.842;2023-04-30T01:17:04;99514.34;;;10.45;100.00
52927;BME280;40783;49.710;8.842;2023-04-30T01:19:42;99510.38;;;10.49;100.00
52927;BME280;40783;49.710;8.842;2023-04-30T01:29:56;99498.44;;;10.44;100.00
52927;BME280;40783;49.710;8.842;2023-04-30T01:32:22;99501.94;;;10.34;100.00
52927;BME280;40783;49.710;8.842;2023-04-30T01:34:47;99507.66;;;10.21;100.00
52927;BME280;40783;49.710;8.842;2023-04-30T01:42:43;99501.28;;;10.32;100.00
52927;BME280;40783;49.710;8.842;2023-04-30T01:48:34;99499.44;;;10.33;100.00
52927;BME280;40783;49.710;8.842;2023-04-30T01:51:21;99498.63;;;10.32;100.00
52927;BME280;40783;49.710;8.842;2023-04-30T01:53:49;99498.63;;;10.22;100.00
52927;BME280;40783;49.710;8.842;2023-04-30T01:56:20;99503.56;;;10.27;100.00
52927;BME280;40783;49.710;8.842;2023-04-30T01:58:51;99505.38;;;10.27;100.00
52927;BME280;40783;49.710;8.842;2023-04-30T02:01:44;99503.97;;;10.22;100.00
52927;BME280;40783;49.710;8.842;2023-04-30T02:04:09;99500.31;;;10.23;100.00
52927;BME280;40783;49.710;8.842;2023-04-30T02:06:37;99497.22;;;10.28;100.00
52927;BME280;40783;49.710;8.842;2023-04-30T02:09:05;99506.25;;;10.17;100.00
52927;BME280;40783;49.710;8.842;2023-04-30T02:11:31;99500.63;;;10.20;100.00
52927;BME280;40783;49.710;8.842;2023-04-30T02:13:58;99503.41;;;10.29;100.00
52927;BME280;40783;49.710;8.842;2023-04-30T02:16:23;99501.72;;;10.28;100.00
52927;BME280;40783;49.710;8.842;2023-04-30T02:18:51;99509.84;;;10.36;100.00
52927;BME280;40783;49.710;8.842;2023-04-30T02:21:16;99513.78;;;10.32;100.00
52927;BME280;40783;49.710;8.842;2023-04-30T02:23:42;99513.50;;;10.35;100.00
52927;BME280;40783;49.710;8.842;2023-04-30T02:26:07;99518.31;;;10.31;100.00
52927;BME280;40783;49.710;8.842;2023-04-30T02:28:35;99513.22;;;10.38;100.00
52927;BME280;40783;49.710;8.842;2023-04-30T02:31:00;99510.44;;;10.30;100.00
52927;BME280;40783;49.710;8.842;2023-04-30T02:33:25;99512.13;;;10.31;100.00
52927;BME280;40783;49.710;8.842;2023-04-30T02:35:53;99507.34;;;10.24;100.00
52927;BME280;40783;49.710;8.842;2023-04-30T02:38:19;99509.03;;;10.25;100.00
52927;BME280;40783;49.710;8.842;2023-04-30T02:40:44;99512.41;;;10.28;100.00
52927;BME280;40783;49.710;8.842;2023-04-30T02:43:10;99507.94;;;10.18;100.00
52927;BME280;40783;49.710;8.842;2023-04-30T02:45:37;99512.69;;;10.24;100.00
52927;BME280;40783;49.710;8.842;2023-04-30T02:48:03;99509.03;;;10.25;100.00
52927;BME280;40783;49.710;8.842;2023-04-30T02:50:30;99510.06;;;10.15;100.00
52927;BME280;40783;49.710;8.842;2023-04-30T02:52:56;99512.69;;;10.24;100.00
52927;BME280;40783;49.710;8.842;2023-04-30T02:55:21;99506.38;;;10.25;100.00
52927;BME280;40783;49.710;8.842;2023-04-30T02:57:51;99507.41;;;10.15;100.00
52927;BME280;40783;49.710;8.842;2023-04-30T03:00:16;99510.50;;;10.10;100.00
52927;BME280;40783;49.710;8.842;2023-04-30T03:02:42;99504.56;;;10.16;100.00
52927;BME280;40783;49.710;8.842;2023-04-30T03:05:07;99500.22;;;10.15;100.00
52927;BME280;40783;49.710;8.842;2023-04-30T03:07:35;99500.91;;;10.17;100.00
52927;BME280;40783;49.710;8.842;2023-04-30T03:10:00;99496.44;;;10.08;100.00
52927;BME280;40783;49.710;8.842;2023-04-30T03:12:25;99503.78;;;10.06;100.00
52927;BME280;40783;49.710;8.842;2023-04-30T03:14:51;99510.59;;;9.90;100.00
52927;BME280;40783;49.710;8.842;2023-04-30T03:17:16;99511.97;;;9.94;100.00
52927;BME280;40783;49.710;8.842;2023-04-30T03:19:46;99515.63;;;9.93;100.00
52927;BME280;40783;49.710;8.842;2023-04-30T03:22:12;99505.66;;;9.95;100.00
52927;BME280;40783;49.710;8.842;2023-04-30T03:24:44;99509.72;;;10.00;100.00
52927;BME280;40783;49.710;8.842;2023-04-30T03:27:12;99509.19;;;9.86;100.00
52927;BME280;40783;49.710;8.842;2023-04-30T03:29:38;99500.75;;;9.81;100.00
52927;BME280;40783;49.710;8.842;2023-04-30T03:32:08;99512.56;;;9.88;100.00
52927;BME280;40783;49.710;8.842;2023-04-30T03:34:35;99509.31;;;9.94;100.00
52927;BME280;40783;49.710;8.842;2023-04-30T03:37:03;99503.84;;;9.86;100.00
52927;BME280;40783;49.710;8.842;2023-04-30T03:39:33;99515.50;;;9.85;100.00
52927;BME280;40783;49.710;8.842;2023-04-30T03:41:58;99502.72;;;9.79;100.00
52927;BME280;40783;49.710;8.842;2023-04-30T03:44:27;99508.91;;;9.89;100.00
52927;BME280;40783;49.710;8.842;2023-04-30T03:46:52;99504.66;;;9.87;100.00
52927;BME280;40783;49.710;8.842;2023-04-30T03:49:20;99511.16;;;9.84;100.00
52927;BME280;40783;49.710;8.842;2023-04-30T03:51:45;99505.53;;;9.87;100.00
52927;BME280;40783;49.710;8.842;2023-04-30T03:54:13;99500.47;;;9.84;100.00
52927;BME280;40783;49.710;8.842;2023-04-30T03:56:42;99503.56;;;9.89;100.00
52927;BME280;40783;49.710;8.842;2023-04-30T03:59:08;99501.06;;;9.78;100.00
52927;BME280;40783;49.710;8.842;2023-04-30T04:01:36;99505.81;;;9.84;100.00
52927;BME280;40783;49.710;8.842;2023-04-30T04:04:01;99498.78;;;9.83;100.00
52927;BME280;40783;49.710;8.842;2023-04-30T04:06:26;99498.50;;;9.86;100.00
52927;BME280;40783;49.710;8.842;2023-04-30T04:08:54;99507.50;;;9.85;100.00
52927;BME280;40783;49.710;8.842;2023-04-30T04:11:19;99501.59;;;9.91;100.00
52927;BME280;40783;49.710;8.842;2023-04-30T04:13:47;99503.84;;;9.86;100.00
52927;BME280;40783;49.710;8.842;2023-04-30T04:16:14;99499.19;;;9.88;100.00
52927;BME280;40783;49.710;8.842;2023-04-30T04:18:40;99499.59;;;9.93;100.00
52927;BME280;40783;49.710;8.842;2023-04-30T04:21:05;99506.34;;;9.98;100.00
52927;BME280;40783;49.710;8.842;2023-04-30T04:23:31;99500.72;;;10.01;100.00
52927;BME280;40783;49.710;8.842;2023-04-30T04:25:59;99510.84;;;9.97;100.00
52927;BME280;40783;49.710;8.842;2023-04-30T04:28:24;99510.53;;;10.00;100.00
52927;BME280;40783;49.710;8.842;2023-04-30T04:30:50;99520.13;;;10.03;100.00
52927;BME280;40783;49.710;8.842;2023-04-30T04:33:16;99516.88;;;9.99;100.00
52927;BME280;40783;49.710;8.842;2023-04-30T04:35:43;99523.06;;;10.00;100.00
52927;BME280;40783;49.710;8.842;2023-04-30T04:38:09;99520.69;;;9.97;100.00
52927;BME280;40783;49.710;8.842;2023-04-30T04:40:34;99514.78;;;9.93;100.00
52927;BME280;40783;49.710;8.842;2023-04-30T04:43:00;99525.75;;;10.00;100.00
52927;BME280;40783;49.710;8.842;2023-04-30T04:45:25;99520.69;;;9.97;100.00
52927;BME280;40783;49.710;8.842;2023-04-30T04:47:53;99525.47;;;10.03;100.00
52927;BME280;40783;49.710;8.842;2023-04-30T04:50:20;99524.06;;;9.99;100.00
52927;BME280;40783;49.710;8.842;2023-04-30T04:52:46;99522.94;;;9.91;100.00
52927;BME280;40783;49.710;8.842;2023-04-30T04:55:12;99531.94;;;9.90;100.00
52927;BME280;40783;49.710;8.842;2023-04-30T04:57:38;99530.69;;;9.94;100.00
52927;BME280;40783;49.710;8.842;2023-04-30T05:00:04;99535.03;;;9.95;100.00
52927;BME280;40783;49.710;8.842;2023-04-30T05:02:32;99527.03;;;9.95;100.00
52927;BME280;40783;49.710;8.842;2023-04-30T05:04:57;99530.81;;;10.03;100.00
52927;BME280;40783;49.710;8.842;2023-04-30T05:07:25;99535.31;;;9.92;100.00
52927;BME280;40783;49.710;8.842;2023-04-30T05:09:53;99527.13;;;10.04;100.00
52927;BME280;40783;49.710;8.842;2023-04-30T05:12:18;99528.22;;;10.11;100.00
52927;BME280;40783;49.710;8.842;2023-04-30T05:14:45;99524.16;;;10.07;100.00
52927;BME280;40783;49.710;8.842;2023-04-30T05:17:11;99528.50;;;10.08;100.00
52927;BME280;40783;49.710;8.842;2023-04-30T05:19:39;99527.50;;;10.19;100.00
52927;BME280;40783;49.710;8.842;2023-04-30T05:22:06;99529.44;;;10.27;100.00
52927;BME280;40783;49.710;8.842;2023-04-30T05:24:31;99521.72;;;10.23;100.00
52927;BME280;40783;49.710;8.842;2023-04-30T05:26:59;99524.19;;;10.35;100.00
52927;BME280;40783;49.710;8.842;2023-04-30T05:29:29;99529.00;;;10.31;100.00
52927;BME280;40783;49.710;8.842;2023-04-30T05:31:54;99532.06;;;10.36;100.00
52927;BME280;40783;49.710;8.842;2023-04-30T05:34:25;99533.91;;;10.36;100.00
52927;BME280;40783;49.710;8.842;2023-04-30T05:36:52;99529.25;;;10.38;100.00
52927;BME280;40783;49.710;8.842;2023-04-30T05:39:20;99533.44;;;10.50;100.00
52927;BME280;40783;49.710;8.842;2023-04-30T05:41:45;99533.06;;;10.45;100.00
52927;BME280;40783;49.710;8.842;2023-04-30T05:44:10;99531.78;;;10.49;100.00
52927;BME280;40783;49.710;8.842;2023-04-30T05:46:36;99530.06;;;10.38;100.00
52927;BME280;40783;49.710;8.842;2023-04-30T05:49:01;99536.03;;;10.42;100.00
52927;BME280;40783;49.710;8.842;2023-04-30T05:51:29;99538.81;;;10.50;100.00
52927;BME280;40783;49.710;8.842;2023-04-30T05:53:55;99545.03;;;10.41;100.00
52927;BME280;40783;49.710;8.842;2023-04-30T05:56:22;99532.66;;;10.40;100.00
52927;BME280;40783;49.710;8.842;2023-04-30T05:58:48;99531.06;;;10.37;100.00
52927;BME280;40783;49.710;8.842;2023-04-30T06:01:16;99528.53;;;10.46;100.00
52927;BME280;40783;49.710;8.842;2023-04-30T06:03:43;99529.88;;;10.60;100.00
52927;BME280;40783;49.710;8.842;2023-04-30T06:06:11;99529.66;;;10.71;100.00
52927;BME280;40783;49.710;8.842;2023-04-30T06:08:38;99536.09;;;10.78;100.00
52927;BME280;40783;49.710;8.842;2023-04-30T06:11:08;99531.31;;;10.82;100.00
52927;BME280;40783;49.710;8.842;2023-04-30T06:13:36;99532.47;;;11.16;100.00
52927;BME280;40783;49.710;8.842;2023-04-30T06:16:04;99531.09;;;11.48;100.00
52927;BME280;40783;49.710;8.842;2023-04-30T06:18:29;99528.63;;;11.81;100.00
52927;BME280;40783;49.710;8.842;2023-04-30T06:20:54;99535.88;;;12.07;100.00
52927;BME280;40783;49.710;8.842;2023-04-30T06:23:22;99528.69;;;11.89;100.00
52927;BME280;40783;49.710;8.842;2023-04-30T06:25:49;99537.56;;;12.08;100.00
52927;BME280;40783;49.710;8.842;2023-04-30T06:28:15;99531.91;;;12.19;100.00
52927;BME280;40783;49.710;8.842;2023-04-30T06:30:40;99535.22;;;11.86;100.00
52927;BME280;40783;49.710;8.842;2023-04-30T06:33:06;99540.19;;;12.26;100.00
52927;BME280;40783;49.710;8.842;2023-04-30T06:35:31;99532.69;;;12.38;100.00
52927;BME280;40783;49.710;8.842;2023-04-30T06:37:58;99533.84;;;12.78;100.00
52927;BME280;40783;49.710;8.842;2023-04-30T06:40:26;99537.53;;;12.85;100.00
52927;BME280;40783;49.710;8.842;2023-04-30T06:42:54;99535.41;;;12.97;100.00
52927;BME280;40783;49.710;8.842;2023-04-30T06:45:19;99543.16;;;13.17;100.00
52927;BME280;40783;49.710;8.842;2023-04-30T06:47:45;99528.59;;;13.61;97.80
52927;BME280;40783;49.710;8.842;2023-04-30T06:50:11;99530.63;;;13.75;95.76
52927;BME280;40783;49.710;8.842;2023-04-30T06:52:41;99531.56;;;13.99;95.01
52927;BME280;40783;49.710;8.842;2023-04-30T06:55:07;99523.84;;;14.04;96.36
52927;BME280;40783;49.710;8.842;2023-04-30T06:57:33;99532.19;;;14.26;93.35
52927;BME280;40783;49.710;8.842;2023-04-30T07:00:01;99526.84;;;14.18;93.25
52927;BME280;40783;49.710;8.842;2023-04-30T07:02:28;99530.00;;;14.21;91.31
52927;BME280;40783;49.710;8.842;2023-04-30T07:04:58;99531.19;;;14.19;89.56
52927;BME280;40783;49.710;8.842;2023-04-30T07:07:24;99523.50;;;13.99;89.17
52927;BME280;40783;49.710;8.842;2023-04-30T07:09:49;99535.56;;;14.28;89.92
52927;BME280;40783;49.710;8.842;2023-04-30T07:12:15;99527.28;;;14.38;86.75
52927;BME280;40783;49.710;8.842;2023-04-30T07:14:43;99532.47;;;14.39;89.00
52927;BME280;40783;49.710;8.842;2023-04-30T07:17:08;99528.56;;;14.50;81.09
52927;BME280;40783;49.710;8.842;2023-04-30T07:19:34;99533.22;;;14.17;81.77
52927;BME280;40783;49.710;8.842;2023-04-30T07:22:01;99521.84;;;13.90;76.96
52927;BME280;40783;49.710;8.842;2023-04-30T07:24:29;99525.50;;;14.05;75.44
52927;BME280;40783;49.710;8.842;2023-04-30T07:26:55;99516.09;;;14.09;75.07
52927;BME280;40783;49.710;8.842;2023-04-30T07:29:26;99523.81;;;14.21;73.73
52927;BME280;40783;49.710;8.842;2023-04-30T07:31:52;99528.44;;;14.35;73.36
52927;BME280;40783;49.710;8.842;2023-04-30T07:34:18;99525.00;;;14.58;71.24
52927;BME280;40783;49.710;8.842;2023-04-30T07:36:43;99524.72;;;14.45;74.31
52927;BME280;40783;49.710;8.842;2023-04-30T07:39:11;99527.34;;;14.61;69.50
52927;BME280;40783;49.710;8.842;2023-04-30T07:41:39;99522.97;;;14.60;70.67
52927;BME280;40783;49.710;8.842;2023-04-30T07:44:04;99528.75;;;14.40;69.75
52927;BME280;40783;49.710;8.842;2023-04-30T07:46:32;99520.97;;;14.54;69.55
52927;BME280;40783;49.710;8.842;2023-04-30T07:48:57;99525.31;;;14.72;69.29
52927;BME280;40783;49.710;8.842;2023-04-30T07:51:23;99518.91;;;14.64;69.61
52927;BME280;40783;49.710;8.842;2023-04-30T07:53:48;99528.78;;;14.32;68.24
52927;BME280;40783;49.710;8.842;2023-04-30T07:56:13;99520.66;;;14.49;70.05
52927;BME280;40783;49.710;8.842;2023-04-30T07:58:44;99527.69;;;14.10;70.07
52927;BME280;40783;49.710;8.842;2023-04-30T08:01:15;99526.09;;;14.32;70.67
52927;BME280;40783;49.710;8.842;2023-04-30T08:03:45;99525.06;;;13.85;70.98
52927;BME280;40783;49.710;8.842;2023-04-30T08:06:10;99524.50;;;14.15;71.56
52927;BME280;40783;49.710;8.842;2023-04-30T08:08:35;99520.81;;;13.99;68.89
52927;BME280;40783;49.710;8.842;2023-04-30T08:11:01;99525.13;;;14.25;66.15
52927;BME280;40783;49.710;8.842;2023-04-30T08:13:31;99529.53;;;14.18;68.69
52927;BME280;40783;49.710;8.842;2023-04-30T08:15:59;99528.09;;;14.38;70.11
52927;BME280;40783;49.710;8.842;2023-04-30T08:18:24;99531.97;;;14.36;67.49
52927;BME280;40783;49.710;8.842;2023-04-30T08:20:52;99527.16;;;14.23;67.88
52927;BME280;40783;49.710;8.842;2023-04-30T08:23:20;99533.03;;;14.27;67.79
52927;BME280;40783;49.710;8.842;2023-04-30T08:25:47;99524.41;;;14.31;68.26
52927;BME280;40783;49.710;8.842;2023-04-30T08:28:13;99508.53;;;14.05;66.98
52927;BME280;40783;49.710;8.842;2023-04-30T08:30:38;99519.41;;;14.28;65.86
52927;BME280;40783;49.710;8.842;2023-04-30T08:33:06;99527.72;;;14.50;68.24
52927;BME280;40783;49.710;8.842;2023-04-30T08:35:34;99520.38;;;14.35;66.05
52927;BME280;40783;49.710;8.842;2023-04-30T08:38:05;99516.59;;;14.53;67.23
52927;BME280;40783;49.710;8.842;2023-04-30T08:40:33;99515.78;;;14.52;66.20
52927;BME280;40783;49.710;8.842;2023-04-30T08:43:09;99516.97;;;14.50;66.18
52927;BME280;40783;49.710;8.842;2023-04-30T08:45:44;99514.03;;;14.28;62.40
52927;BME280;40783;49.710;8.842;2023-04-30T08:48:24;99519.78;;;14.08;64.08
52927;BME280;40783;49.710;8.842;2023-04-30T08:50:51;99524.50;;;14.15;65.06
52927;BME280;40783;49.710;8.842;2023-04-30T08:53:16;99513.31;;;14.34;66.46
52927;BME280;40783;49.710;8.842;2023-04-30T08:55:44;99511.56;;;14.50;62.92
52927;BME280;40783;49.710;8.842;2023-04-30T08:58:12;99519.94;;;14.72;61.18
52927;BME280;40783;49.710;8.842;2023-04-30T09:00:40;99523.47;;;14.24;59.83
52927;BME280;40783;49.710;8.842;2023-04-30T09:03:08;99521.13;;;14.13;60.57
52927;BME280;40783;49.710;8.842;2023-04-30T09:05:35;99510.94;;;14.39;61.81
52927;BME280;40783;49.710;8.842;2023-04-30T09:08:05;99515.63;;;14.46;58.61
52927;BME280;40783;49.710;8.842;2023-04-30T09:10:36;99506.88;;;14.44;59.51
52927;BME280;40783;49.710;8.842;2023-04-30T09:13:06;99506.88;;;14.44;58.79
52927;BME280;40783;49.710;8.842;2023-04-30T09:15:33;99507.72;;;14.52;59.62
52927;BME280;40783;49.710;8.842;2023-04-30T09:18:19;99507.88;;;14.51;59.52
52927;BME280;40783;49.710;8.842;2023-04-30T09:20:59;99505.09;;;14.76;59.39
52927;BME280;40783;49.710;8.842;2023-04-30T09:23:28;99502.44;;;14.99;58.06
52927;BME280;40783;49.710;8.842;2023-04-30T09:25:54;99500.56;;;14.99;56.46
52927;BME280;40783;49.710;8.842;2023-04-30T09:28:21;99498.06;;;15.21;56.06
52927;BME280;40783;49.710;8.842;2023-04-30T09:30:52;99495.66;;;15.50;56.69
52927;BME280;40783;49.710;8.842;2023-04-30T09:33:18;99491.22;;;15.57;55.44
52927;BME280;40783;49.710;8.842;2023-04-30T09:35:44;99500.50;;;15.69;55.91
52927;BME280;40783;49.710;8.842;2023-04-30T09:38:35;99501.34;;;15.70;52.42
52927;BME280;40783;49.710;8.842;2023-04-30T09:41:23;99493.72;;;15.58;53.93
52927;BME280;40783;49.710;8.842;2023-04-30T09:43:55;99497.53;;;15.64;55.62
52927;BME280;40783;49.710;8.842;2023-04-30T09:46:28;99496.00;;;15.47;55.77
52927;BME280;40783;49.710;8.842;2023-04-30T09:49:03;99491.97;;;15.27;54.92
52927;BME280;40783;49.710;8.842;2023-04-30T09:51:31;99484.97;;;15.18;56.87
52927;BME280;40783;49.710;8.842;2023-04-30T09:54:01;99499.38;;;15.02;55.12
52927;BME280;40783;49.710;8.842;2023-04-30T09:56:27;99488.25;;;15.05;55.45
52927;BME280;40783;49.710;8.842;2023-04-30T09:58:55;99477.94;;;15.09;56.11
52927;BME280;40783;49.710;8.842;2023-04-30T10:01:25;99480.34;;;15.04;55.07
52927;BME280;40783;49.710;8.842;2023-04-30T10:03:53;99485.97;;;15.17;56.06
52927;BME280;40783;49.710;8.842;2023-04-30T10:06:19;99487.69;;;15.33;54.04
52927;BME280;40783;49.710;8.842;2023-04-30T10:08:52;99478.69;;;15.41;53.61
52927;BME280;40783;49.710;8.842;2023-04-30T10:11:20;99471.47;;;15.41;54.02
52927;BME280;40783;49.710;8.842;2023-04-30T10:14:02;99465.13;;;15.34;55.05
52927;BME280;40783;49.710;8.842;2023-04-30T10:19:14;99467.69;;;15.66;53.34
52927;BME280;40783;49.710;8.842;2023-04-30T10:21:41;99469.28;;;15.60;52.35
52927;BME280;40783;49.710;8.842;2023-04-30T10:24:15;99466.38;;;15.62;53.12
52927;BME280;40783;49.710;8.842;2023-04-30T10:26:45;99455.06;;;15.81;52.07
52927;BME280;40783;49.710;8.842;2023-04-30T10:29:14;99456.75;;;15.82;51.12
52927;BME280;40783;49.710;8.842;2023-04-30T10:31:42;99448.47;;;15.84;52.11
52927;BME280;40783;49.710;8.842;2023-04-30T10:36:58;99437.41;;;15.94;51.00
52927;BME280;40783;49.710;8.842;2023-04-30T10:39:25;99438.91;;;15.81;50.24
52927;BME280;40783;49.710;8.842;2023-04-30T10:42:01;99438.66;;;15.91;47.90
52927;BME280;40783;49.710;8.842;2023-04-30T10:44:31;99434.81;;;15.85;47.86
52927;BME280;40783;49.710;8.842;2023-04-30T10:47:00;99435.56;;;16.09;49.21
52927;BME280;40783;49.710;8.842;2023-04-30T10:49:29;99437.88;;;16.12;50.03
52927;BME280;40783;49.710;8.842;2023-04-30T10:51:58;99443.75;;;16.01;49.30
52927;BME280;40783;49.710;8.842;2023-04-30T10:54:37;99428.13;;;16.11;49.26
52927;BME280;40783;49.710;8.842;2023-04-30T10:59:42;99424.41;;;16.12;47.82
52927;BME280;40783;49.710;8.842;2023-04-30T11:02:09;99421.59;;;16.21;49.58
52927;BME280;40783;49.710;8.842;2023-04-30T11:05:11;99417.22;;;16.20;47.01
52927;BME280;40783;49.710;8.842;2023-04-30T11:07:37;99420.16;;;16.40;48.10
52927;BME280;40783;49.710;8.842;2023-04-30T11:10:10;99412.47;;;16.22;46.07
52927;BME280;40783;49.710;8.842;2023-04-30T11:12:43;99413.16;;;16.45;45.90
52927;BME280;40783;49.710;8.842;2023-04-30T11:15:17;99418.69;;;16.37;45.53
52927;BME280;40783;49.710;8.842;2023-04-30T11:17:47;99406.72;;;16.25;46.43
52927;BME280;40783;49.710;8.842;2023-04-30T11:20:19;99409.19;;;16.41;46.39
52927;BME280;40783;49.710;8.842;2023-04-30T11:22:47;99411.53;;;16.29;46.56
52927;BME280;40783;49.710;8.842;2023-04-30T11:25:17;99412.09;;;16.25;45.88
52927;BME280;40783;49.710;8.842;2023-04-30T11:27:46;99407.34;;;16.27;45.64
52927;BME280;40783;49.710;8.842;2023-04-30T11:30:15;99411.72;;;16.28;46.97
52927;BME280;40783;49.710;8.842;2023-04-30T11:32:43;99404.66;;;16.27;47.34
52927;BME280;40783;49.710;8.842;2023-04-30T11:35:11;99410.34;;;16.17;46.02
52927;BME280;40783;49.710;8.842;2023-04-30T11:37:41;99404.56;;;16.20;46.52
52927;BME280;40783;49.710;8.842;2023-04-30T11:40:14;99408.00;;;16.29;46.36
52927;BME280;40783;49.710;8.842;2023-04-30T11:42:42;99403.53;;;16.36;47.03
52927;BME280;40783;49.710;8.842;2023-04-30T11:45:16;99396.56;;;16.27;45.70
52927;BME280;40783;49.710;8.842;2023-04-30T11:50:11;99395.47;;;16.80;47.14
52927;BME280;40783;49.710;8.842;2023-04-30T11:52:38;99386.72;;;16.99;47.11
52927;BME280;40783;49.710;8.842;2023-04-30T11:55:08;99380.16;;;17.09;47.23
52927;BME280;40783;49.710;8.842;2023-04-30T11:57:44;99381.69;;;16.96;47.21
52927;BME280;40783;49.710;8.842;2023-04-30T12:02:45;99392.25;;;16.69;45.79
52927;BME280;40783;49.710;8.842;2023-04-30T12:05:18;99395.97;;;16.68;46.31
52927;BME280;40783;49.710;8.842;2023-04-30T12:08:03;99389.66;;;16.61;45.75
52927;BME280;40783;49.710;8.842;2023-04-30T12:10:33;99396.72;;;16.62;46.25
52927;BME280;40783;49.710;8.842;2023-04-30T12:13:00;99389.50;;;16.47;45.69
52927;BME280;40783;49.710;8.842;2023-04-30T12:15:28;99391.19;;;16.49;45.98
52927;BME280;40783;49.710;8.842;2023-04-30T12:17:58;99384.06;;;16.84;47.14
52927;BME280;40783;49.710;8.842;2023-04-30T12:20:26;99375.16;;;16.84;46.75
52927;BME280;40783;49.710;8.842;2023-04-30T12:22:52;99383.13;;;16.92;47.92
52927;BME280;40783;49.710;8.842;2023-04-30T12:25:20;99385.03;;;16.98;46.97
52927;BME280;40783;49.710;8.842;2023-04-30T12:27:47;99379.78;;;16.90;46.82
52927;BME280;40783;49.710;8.842;2023-04-30T12:30:13;99387.09;;;16.74;45.64
52927;BME280;40783;49.710;8.842;2023-04-30T12:32:41;99383.22;;;16.62;45.98
52927;BME280;40783;49.710;8.842;2023-04-30T12:35:07;99380.00;;;16.52;45.95
52927;BME280;40783;49.710;8.842;2023-04-30T12:37:33;99376.22;;;16.46;46.38
52927;BME280;40783;49.710;8.842;2023-04-30T12:39:59;99382.97;;;16.57;47.51
52927;BME280;40783;49.710;8.842;2023-04-30T12:42:24;99378.34;;;16.51;47.05
52927;BME280;40783;49.710;8.842;2023-04-30T12:44:52;99376.09;;;16.54;46.76
52927;BME280;40783;49.710;8.842;2023-04-30T12:47:17;99368.06;;;16.61;48.34
52927;BME280;40783;49.710;8.842;2023-04-30T12:49:46;99364.19;;;16.49;47.48
52927;BME280;40783;49.710;8.842;2023-04-30T12:52:14;99360.22;;;16.66;46.44
52927;BME280;40783;49.710;8.842;2023-04-30T12:54:40;99365.75;;;16.58;46.44
52927;BME280;40783;49.710;8.842;2023-04-30T12:57:06;99368.06;;;16.61;47.10
52927;BME280;40783;49.710;8.842;2023-04-30T13:02:18;99354.56;;;16.83;47.49
52927;BME280;40783;49.710;8.842;2023-04-30T13:04:43;99342.97;;;17.11;46.46
52927;BME280;40783;49.710;8.842;2023-04-30T13:07:09;99336.53;;;17.12;44.90
52927;BME280;40783;49.710;8.842;2023-04-30T13:09:35;99334.56;;;17.27;45.55
52927;BME280;40783;49.710;8.842;2023-04-30T13:12:01;99338.81;;;17.43;45.11
52927;BME280;40783;49.710;8.842;2023-04-30T13:14:27;99324.63;;;17.34;44.65
52927;BME280;40783;49.710;8.842;2023-04-30T13:16:57;99324.94;;;17.53;44.76
52927;BME280;40783;49.710;8.842;2023-04-30T13:19:26;99319.63;;;17.31;44.20
52927;BME280;40783;49.710;8.842;2023-04-30T13:21:51;99315.13;;;17.45;44.84
52927;BME280;40783;49.710;8.842;2023-04-30T13:24:17;99321.28;;;17.32;45.95
52927;BME280;40783;49.710;8.842;2023-04-30T13:26:43;99317.66;;;17.47;45.87
52927;BME280;40783;49.710;8.842;2023-04-30T13:29:11;99315.97;;;17.46;45.98
52927;BME280;40783;49.710;8.842;2023-04-30T13:31:40;99324.84;;;17.04;46.47
52927;BME280;40783;49.710;8.842;2023-04-30T13:34:10;99314.34;;;16.95;46.91
52927;BME280;40783;49.710;8.842;2023-04-30T13:36:35;99314.44;;;16.58;45.91